sensor_id;sensor_type;location;lat;lon;timestamp;pressure;altitude;pressure_sealevel;temperature;humidity
44659;BME280;30378;50.186;8.644;2022-07-29T00:01:27;100089.69;;;19.91;53.09
44659;BME280;30378;50.186;8.644;2022-07-29T00:03:54;100101.28;;;19.93;52.15
44659;BME280;30378;50.186;8.644;2022-07-29T00:06:21;100095.56;;;20.05;51.61
44659;BME280;30378;50.186;8.644;2022-07-29T00:08:49;100105.09;;;20.04;51.16
44659;BME280;30378;50.186;8.644;2022-07-29T00:11:15;100119.41;;;20.03;51.43
44659;BME280;30378;50.186;8.644;2022-07-29T00:13:42;100122.31;;;19.90;52.90
44659;BME280;30378;50.186;8.644;2022-07-29T00:16:12;100125.41;;;19.85;52.40
44659;BME280;30378;50.186;8.644;2022-07-29T00:18:39;100132.00;;;19.77;52.69
44659;BME280;30378;50.186;8.644;2022-07-29T00:21:06;100136.03;;;19.79;52.77
44659;BME280;30378;50.186;8.644;2022-07-29T00:23:33;100143.75;;;19.86;52.14
44659;BME280;30378;50.186;8.644;2022-07-29T00:26:02;100141.84;;;19.90;52.05
44659;BME280;30378;50.186;8.644;2022-07-29T00:28:29;100154.25;;;19.93;52.99
44659;BME280;30378;50.186;8.644;2022-07-29T00:30:56;100163.88;;;19.95;53.14
44659;BME280;30378;50.186;8.644;2022-07-29T00:33:23;100158.28;;;19.95;52.72
44659;BME280;30378;50.186;8.644;2022-07-29T00:35:50;100161.44;;;19.94;51.99
44659;BME280;30378;50.186;8.644;2022-07-29T00:38:18;100165.31;;;19.89;53.80
44659;BME280;30378;50.186;8.644;2022-07-29T00:40:47;100151.75;;;19.88;53.28
44659;BME280;30378;50.186;8.644;2022-07-29T00:43:14;100154.44;;;19.84;52.69
44659;BME280;30378;50.186;8.644;2022-07-29T00:45:42;100147.84;;;19.92;52.39
44659;BME280;30378;50.186;8.644;2022-07-29T00:48:09;100139.94;;;19.94;52.18
44659;BME280;30378;50.186;8.644;2022-07-29T00:50:38;100149.34;;;20.06;51.71
44659;BME280;30378;50.186;8.644;2022-07-29T00:53:06;100140.53;;;20.04;51.46
44659;BME280;30378;50.186;8.644;2022-07-29T00:55:34;100135.56;;;20.13;50.83
44659;BME280;30378;50.186;8.644;2022-07-29T00:58:02;100136.63;;;20.24;50.64
44659;BME280;30378;50.186;8.644;2022-07-29T01:00:30;100131.69;;;20.37;50.07
44659;BME280;30378;50.186;8.644;2022-07-29T01:02:57;100131.09;;;20.28;50.08
44659;BME280;30378;50.186;8.644;2022-07-29T01:05:26;100132.19;;;20.23;50.86
44659;BME280;30378;50.186;8.644;2022-07-29T01:07:57;100120.44;;;20.14;50.55
44659;BME280;30378;50.186;8.644;2022-07-29T01:10:25;100117.50;;;20.07;52.01
44659;BME280;30378;50.186;8.644;2022-07-29T01:12:55;100114.72;;;20.07;51.99
44659;BME280;30378;50.186;8.644;2022-07-29T01:15:24;100110.75;;;20.08;51.44
44659;BME280;30378;50.186;8.644;2022-07-29T01:18:03;100109.84;;;20.04;50.83
44659;BME280;30378;50.186;8.644;2022-07-29T01:23:40;100107.44;;;20.02;51.59
44659;BME280;30378;50.186;8.644;2022-07-29T01:26:33;100109.59;;;20.09;51.84
44659;BME280;30378;50.186;8.644;2022-07-29T01:29:22;100102.44;;;20.11;52.38
44659;BME280;30378;50.186;8.644;2022-07-29T01:31:59;100097.09;;;20.03;52.99
44659;BME280;30378;50.186;8.644;2022-07-29T01:37:19;100098.63;;;20.00;54.46
44659;BME280;30378;50.186;8.644;2022-07-29T01:39:49;100097.66;;;19.92;54.51
44659;BME280;30378;50.186;8.644;2022-07-29T01:42:36;100096.78;;;19.88;55.54
44659;BME280;30378;50.186;8.644;2022-07-29T01:45:27;100092.97;;;19.77;57.40
44659;BME280;30378;50.186;8.644;2022-07-29T01:50:37;100083.72;;;19.73;56.74
44659;BME280;30378;50.186;8.644;2022-07-29T01:53:09;100084.41;;;19.70;56.31
44659;BME280;30378;50.186;8.644;2022-07-29T01:55:40;100084.97;;;19.59;57.02
44659;BME280;30378;50.186;8.644;2022-07-29T01:58:10;100090.03;;;19.38;58.57
44659;BME280;30378;50.186;8.644;2022-07-29T02:00:40;100092.09;;;19.25;59.84
44659;BME280;30378;50.186;8.644;2022-07-29T02:03:11;100092.94;;;19.10;61.81
44659;BME280;30378;50.186;8.644;2022-07-29T02:05:41;100096.44;;;19.07;61.57
44659;BME280;30378;50.186;8.644;2022-07-29T02:08:10;100097.88;;;19.00;62.70
44659;BME280;30378;50.186;8.644;2022-07-29T02:10:38;100098.13;;;18.95;64.37
44659;BME280;30378;50.186;8.644;2022-07-29T02:13:08;100091.22;;;18.89;65.04
44659;BME280;30378;50.186;8.644;2022-07-29T02:15:36;100093.47;;;18.83;66.80
44659;BME280;30378;50.186;8.644;2022-07-29T02:18:17;100078.91;;;18.74;68.54
44659;BME280;30378;50.186;8.644;2022-07-29T02:20:50;100082.47;;;18.75;69.86
44659;BME280;30378;50.186;8.644;2022-07-29T02:23:21;100077.34;;;18.77;69.97
44659;BME280;30378;50.186;8.644;2022-07-29T02:25:52;100072.59;;;18.77;71.07
44659;BME280;30378;50.186;8.644;2022-07-29T02:28:22;100069.34;;;18.75;71.48
44659;BME280;30378;50.186;8.644;2022-07-29T02:30:52;100067.75;;;18.74;72.72
44659;BME280;30378;50.186;8.644;2022-07-29T02:33:21;100067.75;;;18.74;74.21
44659;BME280;30378;50.186;8.644;2022-07-29T02:35:50;100074.75;;;18.68;75.80
44659;BME280;30378;50.186;8.644;2022-07-29T02:38:18;100071.53;;;18.66;77.16
44659;BME280;30378;50.186;8.644;2022-07-29T02:41:09;100065.97;;;18.66;76.27
44659;BME280;30378;50.186;8.644;2022-07-29T02:43:39;100072.69;;;18.65;77.14
44659;BME280;30378;50.186;8.644;2022-07-29T02:46:11;100061.81;;;18.76;78.38
44659;BME280;30378;50.186;8.644;2022-07-29T02:48:51;100066.84;;;18.70;78.97
44659;BME280;30378;50.186;8.644;2022-07-29T02:51:31;100067.31;;;18.72;78.10
44659;BME280;30378;50.186;8.644;2022-07-29T02:54:06;100058.41;;;18.67;80.68
44659;BME280;30378;50.186;8.644;2022-07-29T02:56:34;100059.00;;;18.60;87.52
44659;BME280;30378;50.186;8.644;2022-07-29T02:59:06;100061.88;;;18.48;92.49
44659;BME280;30378;50.186;8.644;2022-07-29T03:01:35;100053.97;;;18.50;91.98
44659;BME280;30378;50.186;8.644;2022-07-29T03:04:06;100053.81;;;18.42;95.49
44659;BME280;30378;50.186;8.644;2022-07-29T03:06:35;100066.59;;;18.31;99.68
44659;BME280;30378;50.186;8.644;2022-07-29T03:09:06;100060.59;;;18.29;100.00
44659;BME280;30378;50.186;8.644;2022-07-29T03:11:38;100063.25;;;18.26;100.00
44659;BME280;30378;50.186;8.644;2022-07-29T03:14:05;100071.03;;;18.20;100.00
44659;BME280;30378;50.186;8.644;2022-07-29T03:16:33;100066.09;;;18.13;100.00
44659;BME280;30378;50.186;8.644;2022-07-29T03:19:06;100064.63;;;18.03;100.00
44659;BME280;30378;50.186;8.644;2022-07-29T03:21:33;100068.81;;;17.97;100.00
44659;BME280;30378;50.186;8.644;2022-07-29T03:24:00;100056.78;;;17.93;100.00
44659;BME280;30378;50.186;8.644;2022-07-29T03:26:29;100059.34;;;17.86;100.00
44659;BME280;30378;50.186;8.644;2022-07-29T03:28:56;100057.97;;;17.80;100.00
44659;BME280;30378;50.186;8.644;2022-07-29T03:31:23;100058.56;;;17.73;100.00
44659;BME280;30378;50.186;8.644;2022-07-29T03:33:50;100052.06;;;17.69;100.00
44659;BME280;30378;50.186;8.644;2022-07-29T03:36:17;100051.97;;;17.66;100.00
44659;BME280;30378;50.186;8.644;2022-07-29T03:38:45;100048.75;;;17.63;100.00
44659;BME280;30378;50.186;8.644;2022-07-29T03:41:13;100046.31;;;17.62;100.00
44659;BME280;30378;50.186;8.644;2022-07-29T03:43:41;100042.00;;;17.64;100.00
44659;BME280;30378;50.186;8.644;2022-07-29T03:46:10;100039.00;;;17.70;100.00
44659;BME280;30378;50.186;8.644;2022-07-29T03:48:42;100039.00;;;17.70;100.00
44659;BME280;30378;50.186;8.644;2022-07-29T03:51:12;100037.72;;;17.67;100.00
44659;BME280;30378;50.186;8.644;2022-07-29T03:53:40;100031.84;;;17.56;100.00
44659;BME280;30378;50.186;8.644;2022-07-29T03:56:07;100027.00;;;17.41;100.00
44659;BME280;30378;50.186;8.644;2022-07-29T03:58:37;100032.25;;;17.30;100.00
44659;BME280;30378;50.186;8.644;2022-07-29T04:01:05;100030.50;;;17.25;100.00
44659;BME280;30378;50.186;8.644;2022-07-29T04:03:33;100031.44;;;17.17;100.00
44659;BME280;30378;50.186;8.644;2022-07-29T04:06:03;100025.53;;;17.19;100.00
44659;BME280;30378;50.186;8.644;2022-07-29T04:08:33;100022.66;;;17.03;100.00
44659;BME280;30378;50.186;8.644;2022-07-29T04:11:01;100026.69;;;16.93;100.00
44659;BME280;30378;50.186;8.644;2022-07-29T04:13:29;100028.50;;;16.77;100.00
44659;BME280;30378;50.186;8.644;2022-07-29T04:15:56;100038.31;;;16.62;100.00
44659;BME280;30378;50.186;8.644;2022-07-29T04:18:24;100041.88;;;16.62;100.00
44659;BME280;30378;50.186;8.644;2022-07-29T04:20:51;100034.81;;;16.53;100.00
44659;BME280;30378;50.186;8.644;2022-07-29T04:23:18;100043.25;;;16.44;100.00
44659;BME280;30378;50.186;8.644;2022-07-29T04:25:45;100042.31;;;16.40;100.00
44659;BME280;30378;50.186;8.644;2022-07-29T04:28:13;100045.97;;;16.32;100.00
44659;BME280;30378;50.186;8.644;2022-07-29T04:30:40;100045.38;;;16.26;100.00
44659;BME280;30378;50.186;8.644;2022-07-29T04:33:07;100052.28;;;16.20;100.00
44659;BME280;30378;50.186;8.644;2022-07-29T04:35:36;100053.66;;;16.14;100.00
44659;BME280;30378;50.186;8.644;2022-07-29T04:38:05;100053.84;;;16.09;100.00
44659;BME280;30378;50.186;8.644;2022-07-29T04:40:33;100043.94;;;16.08;100.00
44659;BME280;30378;50.186;8.644;2022-07-29T04:43:01;100058.97;;;16.19;100.00
44659;BME280;30378;50.186;8.644;2022-07-29T04:45:28;100045.84;;;16.28;100.00
44659;BME280;30378;50.186;8.644;2022-07-29T04:47:55;100045.38;;;16.26;100.00
44659;BME280;30378;50.186;8.644;2022-07-29T04:50:23;100044.13;;;16.23;100.00
44659;BME280;30378;50.186;8.644;2022-07-29T04:52:50;100041.44;;;16.27;100.00
44659;BME280;30378;50.186;8.644;2022-07-29T04:55:17;100049.09;;;16.30;100.00
44659;BME280;30378;50.186;8.644;2022-07-29T04:57:44;100044.28;;;16.39;100.00
44659;BME280;30378;50.186;8.644;2022-07-29T05:00:12;100059.69;;;16.49;100.00
44659;BME280;30378;50.186;8.644;2022-07-29T05:02:39;100048.03;;;16.68;100.00
44659;BME280;30378;50.186;8.644;2022-07-29T05:05:06;100048.09;;;17.05;100.00
44659;BME280;30378;50.186;8.644;2022-07-29T05:07:33;100049.47;;;17.48;100.00
44659;BME280;30378;50.186;8.644;2022-07-29T05:10:01;100056.34;;;17.91;100.00
44659;BME280;30378;50.186;8.644;2022-07-29T05:12:27;100069.03;;;18.33;100.00
44659;BME280;30378;50.186;8.644;2022-07-29T05:14:55;100063.25;;;18.70;100.00
44659;BME280;30378;50.186;8.644;2022-07-29T05:17:22;100067.06;;;19.09;100.00
44659;BME280;30378;50.186;8.644;2022-07-29T05:19:48;100068.25;;;19.08;100.00
44659;BME280;30378;50.186;8.644;2022-07-29T05:22:19;100069.47;;;19.27;100.00
44659;BME280;30378;50.186;8.644;2022-07-29T05:24:46;100073.06;;;19.27;100.00
44659;BME280;30378;50.186;8.644;2022-07-29T05:27:13;100068.50;;;18.87;100.00
44659;BME280;30378;50.186;8.644;2022-07-29T05:29:41;100075.16;;;19.14;100.00
44659;BME280;30378;50.186;8.644;2022-07-29T05:32:09;100071.28;;;19.03;100.00
44659;BME280;30378;50.186;8.644;2022-07-29T05:34:36;100071.91;;;19.12;100.00
44659;BME280;30378;50.186;8.644;2022-07-29T05:37:03;100082.97;;;20.54;98.80
44659;BME280;30378;50.186;8.644;2022-07-29T05:39:30;100083.34;;;21.71;81.19
44659;BME280;30378;50.186;8.644;2022-07-29T05:41:57;100089.94;;;23.84;67.25
44659;BME280;30378;50.186;8.644;2022-07-29T05:44:23;100090.34;;;25.28;58.62
44659;BME280;30378;50.186;8.644;2022-07-29T05:46:51;100077.84;;;26.64;51.85
44659;BME280;30378;50.186;8.644;2022-07-29T05:49:18;100079.44;;;27.66;48.74
44659;BME280;30378;50.186;8.644;2022-07-29T05:51:45;100083.19;;;28.59;46.08
44659;BME280;30378;50.186;8.644;2022-07-29T05:54:13;100081.47;;;29.19;44.52
44659;BME280;30378;50.186;8.644;2022-07-29T05:56:40;100084.50;;;29.05;44.61
44659;BME280;30378;50.186;8.644;2022-07-29T05:59:07;100087.91;;;29.43;43.75
44659;BME280;30378;50.186;8.644;2022-07-29T06:01:34;100082.88;;;29.55;44.14
44659;BME280;30378;50.186;8.644;2022-07-29T06:04:01;100084.31;;;29.87;42.87
44659;BME280;30378;50.186;8.644;2022-07-29T06:06:28;100085.13;;;31.16;40.46
44659;BME280;30378;50.186;8.644;2022-07-29T06:08:55;100083.22;;;30.20;42.09
44659;BME280;30378;50.186;8.644;2022-07-29T06:11:22;100084.03;;;30.94;40.90
44659;BME280;30378;50.186;8.644;2022-07-29T06:13:49;100086.75;;;30.81;41.04
44659;BME280;30378;50.186;8.644;2022-07-29T06:16:16;100090.53;;;30.58;40.61
44659;BME280;30378;50.186;8.644;2022-07-29T06:18:43;100087.63;;;32.18;38.38
44659;BME280;30378;50.186;8.644;2022-07-29T06:21:11;100078.81;;;32.42;37.01
44659;BME280;30378;50.186;8.644;2022-07-29T06:23:38;100088.75;;;31.00;40.03
44659;BME280;30378;50.186;8.644;2022-07-29T06:26:06;100083.25;;;31.26;38.33
44659;BME280;30378;50.186;8.644;2022-07-29T06:28:33;100081.75;;;32.38;36.53
44659;BME280;30378;50.186;8.644;2022-07-29T06:31:00;100076.53;;;32.50;37.48
44659;BME280;30378;50.186;8.644;2022-07-29T06:33:27;100082.53;;;32.26;35.92
44659;BME280;30378;50.186;8.644;2022-07-29T06:35:54;100085.19;;;31.75;38.44
44659;BME280;30378;50.186;8.644;2022-07-29T06:38:21;100085.97;;;32.34;36.38
44659;BME280;30378;50.186;8.644;2022-07-29T06:40:48;100087.75;;;31.40;37.43
44659;BME280;30378;50.186;8.644;2022-07-29T06:43:37;100089.63;;;32.47;34.61
44659;BME280;30378;50.186;8.644;2022-07-29T06:46:12;100081.50;;;32.20;36.15
44659;BME280;30378;50.186;8.644;2022-07-29T06:48:41;100072.63;;;31.89;35.97
44659;BME280;30378;50.186;8.644;2022-07-29T06:51:09;100080.22;;;32.63;34.58
44659;BME280;30378;50.186;8.644;2022-07-29T06:53:38;100090.97;;;31.71;34.69
44659;BME280;30378;50.186;8.644;2022-07-29T06:56:06;100086.91;;;31.72;37.50
44659;BME280;30378;50.186;8.644;2022-07-29T06:58:35;100092.06;;;33.13;35.13
44659;BME280;30378;50.186;8.644;2022-07-29T07:01:04;100100.66;;;32.45;35.01
44659;BME280;30378;50.186;8.644;2022-07-29T07:03:31;100100.28;;;32.17;33.71
44659;BME280;30378;50.186;8.644;2022-07-29T07:05:59;100104.63;;;32.35;33.84
44659;BME280;30378;50.186;8.644;2022-07-29T07:08:26;100114.53;;;31.39;33.77
44659;BME280;30378;50.186;8.644;2022-07-29T07:10:54;100107.84;;;31.78;35.61
44659;BME280;30378;50.186;8.644;2022-07-29T07:13:22;100116.59;;;31.38;35.47
44659;BME280;30378;50.186;8.644;2022-07-29T07:15:49;100112.84;;;31.41;36.48
44659;BME280;30378;50.186;8.644;2022-07-29T07:18:18;100112.47;;;31.72;37.20
44659;BME280;30378;50.186;8.644;2022-07-29T07:20:45;100116.91;;;32.32;35.28
44659;BME280;30378;50.186;8.644;2022-07-29T07:23:12;100120.28;;;30.30;34.80
44659;BME280;30378;50.186;8.644;2022-07-29T07:25:39;100119.13;;;30.47;38.76
44659;BME280;30378;50.186;8.644;2022-07-29T07:28:07;100114.22;;;31.82;36.84
44659;BME280;30378;50.186;8.644;2022-07-29T07:30:34;100114.94;;;32.71;35.55
44659;BME280;30378;50.186;8.644;2022-07-29T07:33:02;100118.25;;;31.69;35.68
44659;BME280;30378;50.186;8.644;2022-07-29T07:35:29;100120.25;;;30.86;36.36
44659;BME280;30378;50.186;8.644;2022-07-29T07:37:56;100111.56;;;31.46;37.15
44659;BME280;30378;50.186;8.644;2022-07-29T07:40:24;100112.66;;;32.66;35.71
44659;BME280;30378;50.186;8.644;2022-07-29T07:42:51;100120.03;;;33.40;32.97
44659;BME280;30378;50.186;8.644;2022-07-29T07:45:18;100119.59;;;31.64;34.23
44659;BME280;30378;50.186;8.644;2022-07-29T07:47:45;100113.91;;;32.22;34.87
44659;BME280;30378;50.186;8.644;2022-07-29T07:50:13;100114.88;;;31.57;33.91
44659;BME280;30378;50.186;8.644;2022-07-29T07:52:52;100114.16;;;32.70;33.80
44659;BME280;30378;50.186;8.644;2022-07-29T07:55:19;100120.50;;;33.38;34.63
44659;BME280;30378;50.186;8.644;2022-07-29T07:57:46;100118.13;;;32.98;33.10
44659;BME280;30378;50.186;8.644;2022-07-29T08:00:15;100112.69;;;30.63;38.70
44659;BME280;30378;50.186;8.644;2022-07-29T08:02:42;100120.28;;;30.50;35.34
44659;BME280;30378;50.186;8.644;2022-07-29T08:05:12;100112.41;;;29.54;37.23
44659;BME280;30378;50.186;8.644;2022-07-29T08:07:46;100108.91;;;30.86;38.58
44659;BME280;30378;50.186;8.644;2022-07-29T08:10:18;100108.53;;;31.82;36.26
44659;BME280;30378;50.186;8.644;2022-07-29T08:13:07;100104.81;;;32.70;35.06
44659;BME280;30378;50.186;8.644;2022-07-29T08:15:35;100112.94;;;32.42;32.62
44659;BME280;30378;50.186;8.644;2022-07-29T08:18:02;100105.78;;;29.17;36.34
44659;BME280;30378;50.186;8.644;2022-07-29T08:20:33;100115.16;;;30.21;36.47
44659;BME280;30378;50.186;8.644;2022-07-29T08:23:03;100102.06;;;30.67;38.87
44659;BME280;30378;50.186;8.644;2022-07-29T08:25:32;100115.75;;;29.72;36.53
44659;BME280;30378;50.186;8.644;2022-07-29T08:27:59;100108.34;;;30.18;35.63
44659;BME280;30378;50.186;8.644;2022-07-29T08:30:35;100110.53;;;31.20;35.96
44659;BME280;30378;50.186;8.644;2022-07-29T08:33:02;100106.97;;;29.63;35.75
44659;BME280;30378;50.186;8.644;2022-07-29T08:35:29;100104.66;;;31.76;37.69
44659;BME280;30378;50.186;8.644;2022-07-29T08:37:59;100108.78;;;31.88;33.72
44659;BME280;30378;50.186;8.644;2022-07-29T08:40:26;100114.28;;;31.17;32.74
44659;BME280;30378;50.186;8.644;2022-07-29T08:42:53;100105.81;;;30.44;36.17
44659;BME280;30378;50.186;8.644;2022-07-29T08:45:22;100117.75;;;31.25;33.60
44659;BME280;30378;50.186;8.644;2022-07-29T08:47:50;100111.69;;;30.53;34.49
44659;BME280;30378;50.186;8.644;2022-07-29T08:50:17;100107.34;;;31.96;36.23
44659;BME280;30378;50.186;8.644;2022-07-29T08:52:44;100108.31;;;32.06;34.93
44659;BME280;30378;50.186;8.644;2022-07-29T08:55:15;100117.00;;;32.15;33.96
44659;BME280;30378;50.186;8.644;2022-07-29T08:57:43;100106.75;;;32.18;33.44
44659;BME280;30378;50.186;8.644;2022-07-29T09:00:10;100106.28;;;33.13;34.55
44659;BME280;30378;50.186;8.644;2022-07-29T09:02:44;100110.03;;;33.70;33.40
44659;BME280;30378;50.186;8.644;2022-07-29T09:05:14;100106.69;;;33.85;33.12
44659;BME280;30378;50.186;8.644;2022-07-29T09:07:42;100103.56;;;34.99;32.36
44659;BME280;30378;50.186;8.644;2022-07-29T09:10:10;100103.19;;;35.19;32.28
44659;BME280;30378;50.186;8.644;2022-07-29T09:12:37;100107.97;;;34.28;31.88
44659;BME280;30378;50.186;8.644;2022-07-29T09:15:05;100106.38;;;34.80;34.48
44659;BME280;30378;50.186;8.644;2022-07-29T09:17:46;100104.47;;;34.55;31.91
44659;BME280;30378;50.186;8.644;2022-07-29T09:20:18;100106.13;;;35.06;31.98
44659;BME280;30378;50.186;8.644;2022-07-29T09:22:46;100099.16;;;33.43;32.84
44659;BME280;30378;50.186;8.644;2022-07-29T09:25:35;100101.56;;;34.46;34.39
44659;BME280;30378;50.186;8.644;2022-07-29T09:28:10;100095.97;;;33.41;32.35
44659;BME280;30378;50.186;8.644;2022-07-29T09:30:57;100092.94;;;33.70;33.34
44659;BME280;30378;50.186;8.644;2022-07-29T09:33:32;100092.16;;;33.92;34.13
44659;BME280;30378;50.186;8.644;2022-07-29T09:36:07;100094.22;;;33.69;33.26
44659;BME280;30378;50.186;8.644;2022-07-29T09:38:35;100090.81;;;33.62;33.57
44659;BME280;30378;50.186;8.644;2022-07-29T09:41:04;100089.31;;;33.22;33.98
44659;BME280;30378;50.186;8.644;2022-07-29T09:43:32;100085.34;;;33.67;34.89
44659;BME280;30378;50.186;8.644;2022-07-29T09:46:10;100078.25;;;33.72;34.29
44659;BME280;30378;50.186;8.644;2022-07-29T09:48:38;100084.81;;;34.88;33.49
44659;BME280;30378;50.186;8.644;2022-07-29T09:51:05;100085.88;;;32.50;33.66
44659;BME280;30378;50.186;8.644;2022-07-29T09:56:00;100077.66;;;33.99;33.90
44659;BME280;30378;50.186;8.644;2022-07-29T09:58:27;100078.34;;;34.97;34.42
44659;BME280;30378;50.186;8.644;2022-07-29T10:00:56;100085.94;;;34.60;33.50
44659;BME280;30378;50.186;8.644;2022-07-29T10:03:23;100081.56;;;34.36;32.21
44659;BME280;30378;50.186;8.644;2022-07-29T10:06:10;100085.69;;;33.69;32.04
44659;BME280;30378;50.186;8.644;2022-07-29T10:08:37;100076.47;;;34.31;33.65
44659;BME280;30378;50.186;8.644;2022-07-29T10:11:17;100064.41;;;32.62;36.16
44659;BME280;30378;50.186;8.644;2022-07-29T10:13:47;100077.69;;;29.73;37.05
44659;BME280;30378;50.186;8.644;2022-07-29T10:16:16;100070.13;;;30.99;39.44
44659;BME280;30378;50.186;8.644;2022-07-29T10:18:44;100065.97;;;33.02;38.00
44659;BME280;30378;50.186;8.644;2022-07-29T10:21:11;100063.16;;;34.28;34.96
44659;BME280;30378;50.186;8.644;2022-07-29T10:23:39;100068.50;;;32.74;34.99
44659;BME280;30378;50.186;8.644;2022-07-29T10:26:09;100071.28;;;31.18;35.51
44659;BME280;30378;50.186;8.644;2022-07-29T10:28:36;100072.69;;;29.10;37.31
44659;BME280;30378;50.186;8.644;2022-07-29T10:31:06;100069.59;;;28.46;41.04
44659;BME280;30378;50.186;8.644;2022-07-29T10:34:04;100070.75;;;31.07;40.04
44659;BME280;30378;50.186;8.644;2022-07-29T10:44:39;100073.00;;;30.79;36.64
44659;BME280;30378;50.186;8.644;2022-07-29T10:47:07;100075.00;;;30.46;37.41
44659;BME280;30378;50.186;8.644;2022-07-29T10:49:35;100064.78;;;31.51;37.45
44659;BME280;30378;50.186;8.644;2022-07-29T11:05:19;100044.34;;;32.91;35.44
44659;BME280;30378;50.186;8.644;2022-07-29T11:10:44;100046.25;;;31.13;39.47
44659;BME280;30378;50.186;8.644;2022-07-29T11:13:11;100047.19;;;32.40;36.99
44659;BME280;30378;50.186;8.644;2022-07-29T11:15:57;100042.78;;;34.17;36.59
44659;BME280;30378;50.186;8.644;2022-07-29T11:18:25;100047.00;;;34.66;35.32
44659;BME280;30378;50.186;8.644;2022-07-29T11:20:52;100054.53;;;34.19;34.16
44659;BME280;30378;50.186;8.644;2022-07-29T11:23:29;100044.25;;;31.43;34.87
44659;BME280;30378;50.186;8.644;2022-07-29T11:29:03;100044.44;;;33.13;35.23
44659;BME280;30378;50.186;8.644;2022-07-29T11:34:26;100039.81;;;31.58;36.02
44659;BME280;30378;50.186;8.644;2022-07-29T11:39:38;100044.94;;;29.72;37.65
44659;BME280;30378;50.186;8.644;2022-07-29T11:45:04;100042.84;;;29.76;37.56
44659;BME280;30378;50.186;8.644;2022-07-29T11:47:34;100043.47;;;30.24;39.90
44659;BME280;30378;50.186;8.644;2022-07-29T11:50:05;100025.91;;;32.19;40.87
44659;BME280;30378;50.186;8.644;2022-07-29T11:52:35;100032.66;;;32.51;35.95
44659;BME280;30378;50.186;8.644;2022-07-29T11:55:05;100025.16;;;33.30;37.33
44659;BME280;30378;50.186;8.644;2022-07-29T11:57:34;100022.97;;;32.74;36.31
44659;BME280;30378;50.186;8.644;2022-07-29T12:00:05;100015.22;;;32.87;38.90
44659;BME280;30378;50.186;8.644;2022-07-29T12:02:43;100025.88;;;33.78;36.78
44659;BME280;30378;50.186;8.644;2022-07-29T12:05:10;100022.09;;;33.25;34.44
44659;BME280;30378;50.186;8.644;2022-07-29T12:07:38;100015.31;;;32.07;37.50
44659;BME280;30378;50.186;8.644;2022-07-29T12:10:06;100015.72;;;32.73;38.66
44659;BME280;30378;50.186;8.644;2022-07-29T12:12:34;100000.31;;;32.83;38.35
44659;BME280;30378;50.186;8.644;2022-07-29T12:15:15;100010.22;;;33.61;35.91
44659;BME280;30378;50.186;8.644;2022-07-29T12:17:44;100011.75;;;33.75;34.04
44659;BME280;30378;50.186;8.644;2022-07-29T12:20:11;100006.06;;;33.75;35.91
44659;BME280;30378;50.186;8.644;2022-07-29T12:22:40;100001.34;;;33.59;36.31
44659;BME280;30378;50.186;8.644;2022-07-29T12:25:12;99990.34;;;33.92;36.76
44659;BME280;30378;50.186;8.644;2022-07-29T12:28:02;99987.38;;;33.52;34.32
44659;BME280;30378;50.186;8.644;2022-07-29T12:30:38;99981.97;;;32.97;36.30
44659;BME280;30378;50.186;8.644;2022-07-29T12:33:16;99990.72;;;33.03;36.10
44659;BME280;30378;50.186;8.644;2022-07-29T12:35:46;99994.50;;;34.01;36.54
44659;BME280;30378;50.186;8.644;2022-07-29T12:38:24;99989.00;;;34.69;35.08
44659;BME280;30378;50.186;8.644;2022-07-29T12:40:53;99985.06;;;34.85;33.99
44659;BME280;30378;50.186;8.644;2022-07-29T12:43:24;99988.22;;;34.78;34.66
44659;BME280;30378;50.186;8.644;2022-07-29T12:45:56;99983.81;;;32.52;34.74
44659;BME280;30378;50.186;8.644;2022-07-29T12:48:36;99972.81;;;33.15;35.68
44659;BME280;30378;50.186;8.644;2022-07-29T12:51:05;99967.22;;;33.24;35.38
44659;BME280;30378;50.186;8.644;2022-07-29T12:53:35;99971.53;;;32.81;37.64
44659;BME280;30378;50.186;8.644;2022-07-29T12:56:04;99967.56;;;32.14;36.76
44659;BME280;30378;50.186;8.644;2022-07-29T12:58:40;99961.38;;;32.93;37.81
44659;BME280;30378;50.186;8.644;2022-07-29T13:01:15;99955.91;;;32.98;37.79
44659;BME280;30378;50.186;8.644;2022-07-29T13:09:18;99950.50;;;34.02;36.62
44659;BME280;30378;50.186;8.644;2022-07-29T13:11:50;99957.53;;;32.87;35.65
44659;BME280;30378;50.186;8.644;2022-07-29T13:14:35;99960.53;;;32.57;35.17
44659;BME280;30378;50.186;8.644;2022-07-29T13:19:49;99955.97;;;32.47;37.62
44659;BME280;30378;50.186;8.644;2022-07-29T13:22:22;99956.31;;;32.62;37.54
44659;BME280;30378;50.186;8.644;2022-07-29T13:24:53;99967.78;;;30.74;36.47
44659;BME280;30378;50.186;8.644;2022-07-29T13:27:23;99961.94;;;30.64;37.22
44659;BME280;30378;50.186;8.644;2022-07-29T13:29:50;99959.38;;;30.54;36.61
44659;BME280;30378;50.186;8.644;2022-07-29T13:32:19;99956.88;;;30.72;37.32
44659;BME280;30378;50.186;8.644;2022-07-29T13:34:46;99956.28;;;30.32;36.21
44659;BME280;30378;50.186;8.644;2022-07-29T13:37:14;99943.94;;;31.62;36.77
44659;BME280;30378;50.186;8.644;2022-07-29T13:39:41;99953.34;;;31.01;36.54
44659;BME280;30378;50.186;8.644;2022-07-29T13:42:09;99951.09;;;31.67;36.70
44659;BME280;30378;50.186;8.644;2022-07-29T13:44:36;99945.34;;;31.84;35.74
44659;BME280;30378;50.186;8.644;2022-07-29T13:47:04;99939.03;;;32.05;36.48
44659;BME280;30378;50.186;8.644;2022-07-29T13:49:32;99936.03;;;33.21;35.49
44659;BME280;30378;50.186;8.644;2022-07-29T13:51:59;99944.53;;;32.86;35.55
44659;BME280;30378;50.186;8.644;2022-07-29T13:54:26;99943.19;;;31.88;34.80
44659;BME280;30378;50.186;8.644;2022-07-29T13:56:54;99936.44;;;31.27;35.95
44659;BME280;30378;50.186;8.644;2022-07-29T13:59:21;99936.31;;;31.01;35.61